Check out our new PWSWeather beta!
PWSweather.com
Personal Weather Stations
Station Observations
KMICHEBO10
Cordwood Point, Lake Huron, Cheboygan, MI 49721

Cordwood Point, Lake HuronCheboygan, MI 49721

Lat: 45.663372, Lon: -84.3327789

Elevation: 598

Station Type: Davis Vantage Pro2 Wireless

https://www.lakehuronweather.org

High Low Average
Temperature 29.0°F-1.7°C 19.7°F-6.8°C 24.7°F-4.1°C
Dew Point 27.7°F-2.4°C 13.3°F-10.4°C 20.9°F-6.2°C
Winds 9.2 mph 14.8 kmh Calm Calm 3.0 mph WNW4.8 kmh WNW
Wind Gusts 16.1 mph25.9 kmh -- 5.0 mph8.0 kmh
Humidity 95% 73% 86%
Pressure 30.73 in1040.6 mb 30.08 in1018.6 mb -
Precipitation 0.00 in0.0 mm - -
Hour Temp Dew Point Humidity Winds Wind Gusts Pressure Precip Precip Rate Daily Precip Total
12:00 AM 29.0°F-1.7°C 27.7°F-2.4°C 95% Calm Calm -- 30.08 in1018.6 mb - 0.00 in0.0 mm 0.00 in0.0 mm
12:10 AM 28.9°F-1.7°C 27.4°F-2.6°C 94% Calm Calm -- 30.08 in1018.6 mb - 0.00 in0.0 mm 0.00 in0.0 mm
12:20 AM 28.8°F-1.8°C 27.3°F-2.6°C 94% Calm Calm -- 30.08 in1018.6 mb - 0.00 in0.0 mm 0.00 in0.0 mm
12:30 AM 28.7°F-1.8°C 27.2°F-2.7°C 94% Calm Calm 1.2 mph1.9 kmh 30.08 in1018.6 mb - 0.00 in0.0 mm 0.00 in0.0 mm
12:40 AM 28.7°F-1.8°C 27.2°F-2.7°C 94% Calm Calm -- 30.08 in1018.6 mb - 0.00 in0.0 mm 0.00 in0.0 mm
12:50 AM 28.8°F-1.8°C 27.3°F-2.6°C 94% Calm Calm -- 30.08 in1018.6 mb - 0.00 in0.0 mm 0.00 in0.0 mm
01:00 AM 28.8°F-1.8°C 27.3°F-2.6°C 94% Calm Calm -- 30.08 in1018.6 mb - 0.00 in0.0 mm 0.00 in0.0 mm
01:10 AM 28.8°F-1.8°C 27.3°F-2.6°C 94% Calm Calm -- 30.09 in1019.0 mb - 0.00 in0.0 mm 0.00 in0.0 mm
01:20 AM 28.7°F-1.8°C 27.2°F-2.7°C 94% Calm Calm 1.2 mph1.9 kmh 30.09 in1019.0 mb - 0.00 in0.0 mm 0.00 in0.0 mm
01:30 AM 28.7°F-1.8°C 27.2°F-2.7°C 94% Calm Calm -- 30.09 in1019.0 mb - 0.00 in0.0 mm 0.00 in0.0 mm
01:40 AM 28.7°F-1.8°C 27.2°F-2.7°C 94% Calm Calm 1.2 mph1.9 kmh 30.09 in1019.0 mb - 0.00 in0.0 mm 0.00 in0.0 mm
01:50 AM 28.6°F-1.9°C 26.8°F-2.9°C 93% Calm Calm -- 30.09 in1019.0 mb - 0.00 in0.0 mm 0.00 in0.0 mm
02:00 AM 28.6°F-1.9°C 26.8°F-2.9°C 93% Calm Calm 1.2 mph1.9 kmh 30.10 in1019.3 mb - 0.00 in0.0 mm 0.00 in0.0 mm
02:10 AM 28.6°F-1.9°C 26.8°F-2.9°C 93% Calm Calm 1.2 mph1.9 kmh 30.10 in1019.3 mb - 0.00 in0.0 mm 0.00 in0.0 mm
02:20 AM 28.6°F-1.9°C 26.8°F-2.9°C 93% Calm Calm 1.2 mph1.9 kmh 30.10 in1019.3 mb - 0.00 in0.0 mm 0.00 in0.0 mm
02:30 AM 28.5°F-1.9°C 26.7°F-2.9°C 93% Calm Calm -- 30.10 in1019.3 mb - 0.00 in0.0 mm 0.00 in0.0 mm
02:40 AM 28.5°F-1.9°C 26.7°F-2.9°C 93% Calm Calm -- 30.11 in1019.6 mb - 0.00 in0.0 mm 0.00 in0.0 mm
02:50 AM 28.5°F-1.9°C 27.0°F-2.8°C 94% Calm Calm 1.2 mph1.9 kmh 30.11 in1019.6 mb - 0.00 in0.0 mm 0.00 in0.0 mm
03:00 AM 28.5°F-1.9°C 27.0°F-2.8°C 94% Calm Calm 1.2 mph1.9 kmh 30.11 in1019.6 mb - 0.00 in0.0 mm 0.00 in0.0 mm
03:10 AM 28.5°F-1.9°C 26.7°F-2.9°C 93% Calm Calm -- 30.11 in1019.6 mb - 0.00 in0.0 mm 0.00 in0.0 mm
03:20 AM 28.5°F-1.9°C 26.7°F-2.9°C 93% Calm Calm 1.2 mph1.9 kmh 30.11 in1019.6 mb - 0.00 in0.0 mm 0.00 in0.0 mm
03:30 AM 28.5°F-1.9°C 26.5°F-3.1°C 92% Calm Calm -- 30.12 in1020.0 mb - 0.00 in0.0 mm 0.00 in0.0 mm
03:40 AM 28.5°F-1.9°C 26.5°F-3.1°C 92% Calm Calm -- 30.12 in1020.0 mb - 0.00 in0.0 mm 0.00 in0.0 mm
03:50 AM 28.5°F-1.9°C 26.5°F-3.1°C 92% Calm Calm 1.2 mph1.9 kmh 30.12 in1020.0 mb - 0.00 in0.0 mm 0.00 in0.0 mm
04:00 AM 28.4°F-2.0°C 26.4°F-3.1°C 92% Calm Calm 1.2 mph1.9 kmh 30.12 in1020.0 mb - 0.00 in0.0 mm 0.00 in0.0 mm
04:10 AM 28.5°F-1.9°C 26.7°F-2.9°C 93% Calm Calm -- 30.13 in1020.3 mb - 0.00 in0.0 mm 0.00 in0.0 mm
04:20 AM 28.5°F-1.9°C 26.7°F-2.9°C 93% Calm Calm 1.2 mph1.9 kmh 30.13 in1020.3 mb - 0.00 in0.0 mm 0.00 in0.0 mm
04:30 AM 28.4°F-2.0°C 26.6°F-3.0°C 93% Calm Calm 1.2 mph1.9 kmh 30.14 in1020.7 mb - 0.00 in0.0 mm 0.00 in0.0 mm
04:40 AM 28.4°F-2.0°C 26.6°F-3.0°C 93% Calm Calm 1.2 mph1.9 kmh 30.14 in1020.7 mb - 0.00 in0.0 mm 0.00 in0.0 mm
04:50 AM 28.3°F-2.1°C 26.5°F-3.1°C 93% Calm Calm -- 30.15 in1021.0 mb - 0.00 in0.0 mm 0.00 in0.0 mm
05:00 AM 28.3°F-2.1°C 26.5°F-3.1°C 93% Calm Calm 2.3 mph3.7 kmh 30.16 in1021.3 mb - 0.00 in0.0 mm 0.00 in0.0 mm
05:10 AM 28.3°F-2.1°C 26.5°F-3.1°C 93% Calm Calm 2.3 mph3.7 kmh 30.16 in1021.3 mb - 0.00 in0.0 mm 0.00 in0.0 mm
05:20 AM 28.2°F-2.1°C 26.4°F-3.1°C 93% Calm Calm -- 30.16 in1021.3 mb - 0.00 in0.0 mm 0.00 in0.0 mm
05:30 AM 28.1°F-2.2°C 26.3°F-3.2°C 93% Calm Calm 1.2 mph1.9 kmh 30.16 in1021.3 mb - 0.00 in0.0 mm 0.00 in0.0 mm
05:40 AM 27.9°F-2.3°C 26.1°F-3.3°C 93% Calm Calm 1.2 mph1.9 kmh 30.16 in1021.3 mb - 0.00 in0.0 mm 0.00 in0.0 mm
05:50 AM 27.8°F-2.3°C 25.8°F-3.4°C 92% Calm Calm -- 30.17 in1021.7 mb - 0.00 in0.0 mm 0.00 in0.0 mm
06:00 AM 27.6°F-2.4°C 25.6°F-3.6°C 92% Calm Calm 1.2 mph1.9 kmh 30.17 in1021.7 mb - 0.00 in0.0 mm 0.00 in0.0 mm
06:10 AM 27.4°F-2.6°C 25.4°F-3.7°C 92% Calm Calm -- 30.18 in1022.0 mb - 0.00 in0.0 mm 0.00 in0.0 mm
06:20 AM 27.3°F-2.6°C 25.3°F-3.7°C 92% Calm Calm -- 30.18 in1022.0 mb - 0.00 in0.0 mm 0.00 in0.0 mm
06:30 AM 27.4°F-2.6°C 25.4°F-3.7°C 92% Calm Calm 1.2 mph1.9 kmh 30.19 in1022.4 mb - 0.00 in0.0 mm 0.00 in0.0 mm
06:40 AM 27.5°F-2.5°C 25.2°F-3.8°C 91% Calm Calm -- 30.20 in1022.7 mb - 0.00 in0.0 mm 0.00 in0.0 mm
06:50 AM 27.6°F-2.4°C 25.3°F-3.7°C 91% Calm Calm 1.2 mph1.9 kmh 30.20 in1022.7 mb - 0.00 in0.0 mm 0.00 in0.0 mm
07:00 AM 27.7°F-2.4°C 25.7°F-3.5°C 92% Calm Calm -- 30.20 in1022.7 mb - 0.00 in0.0 mm 0.00 in0.0 mm
07:10 AM 27.7°F-2.4°C 25.4°F-3.7°C 91% Calm Calm 1.2 mph1.9 kmh 30.21 in1023.0 mb - 0.00 in0.0 mm 0.00 in0.0 mm
07:20 AM 27.7°F-2.4°C 25.4°F-3.7°C 91% Calm Calm -- 30.22 in1023.4 mb - 0.00 in0.0 mm 0.00 in0.0 mm
07:30 AM 27.6°F-2.4°C 25.3°F-3.7°C 91% Calm Calm 1.2 mph1.9 kmh 30.22 in1023.4 mb - 0.00 in0.0 mm 0.00 in0.0 mm
07:40 AM 27.5°F-2.5°C 25.0°F-3.9°C 90% Calm Calm 1.2 mph1.9 kmh 30.23 in1023.7 mb - 0.00 in0.0 mm 0.00 in0.0 mm
07:50 AM 27.4°F-2.6°C 24.9°F-3.9°C 90% Calm Calm -- 30.23 in1023.7 mb - 0.00 in0.0 mm 0.00 in0.0 mm
08:00 AM 27.3°F-2.6°C 24.8°F-4.0°C 90% Calm Calm -- 30.23 in1023.7 mb - 0.00 in0.0 mm 0.00 in0.0 mm
08:10 AM 27.2°F-2.7°C 24.7°F-4.1°C 90% Calm Calm -- 30.24 in1024.0 mb - 0.00 in0.0 mm 0.00 in0.0 mm
08:20 AM 27.2°F-2.7°C 24.7°F-4.1°C 90% Calm Calm 1.2 mph1.9 kmh 30.25 in1024.4 mb - 0.00 in0.0 mm 0.00 in0.0 mm
08:30 AM 27.1°F-2.7°C 24.3°F-4.3°C 89% Calm Calm -- 30.25 in1024.4 mb - 0.00 in0.0 mm 0.00 in0.0 mm
08:40 AM 27.0°F-2.8°C 24.2°F-4.3°C 89% Calm Calm 4.6 mph7.4 kmh 30.26 in1024.7 mb - 0.00 in0.0 mm 0.00 in0.0 mm
08:50 AM 27.0°F-2.8°C 24.5°F-4.2°C 90% 1.1 mph N1.8 kmh N 2.3 mph3.7 kmh 30.27 in1025.1 mb - 0.00 in0.0 mm 0.00 in0.0 mm
09:00 AM 27.0°F-2.8°C 24.5°F-4.2°C 90% Calm Calm 2.3 mph3.7 kmh 30.27 in1025.1 mb - 0.00 in0.0 mm 0.00 in0.0 mm
09:10 AM 27.0°F-2.8°C 24.2°F-4.3°C 89% 1.1 mph N1.8 kmh N 3.5 mph5.6 kmh 30.27 in1025.1 mb - 0.00 in0.0 mm 0.00 in0.0 mm
09:20 AM 26.8°F-2.9°C 23.7°F-4.6°C 88% 2.3 mph N3.7 kmh N 2.3 mph3.7 kmh 30.27 in1025.1 mb - 0.00 in0.0 mm 0.00 in0.0 mm
09:30 AM 26.7°F-2.9°C 23.6°F-4.7°C 88% 2.3 mph N3.7 kmh N 5.8 mph9.3 kmh 30.29 in1025.7 mb - 0.00 in0.0 mm 0.00 in0.0 mm
09:40 AM 26.7°F-2.9°C 23.6°F-4.7°C 88% 1.1 mph N1.8 kmh N 2.3 mph3.7 kmh 30.30 in1026.1 mb - 0.00 in0.0 mm 0.00 in0.0 mm
09:50 AM 26.8°F-2.9°C 23.7°F-4.6°C 88% 1.1 mph N1.8 kmh N 2.3 mph3.7 kmh 30.30 in1026.1 mb - 0.00 in0.0 mm 0.00 in0.0 mm
10:00 AM 26.8°F-2.9°C 24.0°F-4.4°C 89% 2.3 mph N3.7 kmh N 4.6 mph7.4 kmh 30.31 in1026.4 mb - 0.00 in0.0 mm 0.00 in0.0 mm
10:10 AM 26.7°F-2.9°C 23.6°F-4.7°C 88% 2.3 mph N3.7 kmh N 4.6 mph7.4 kmh 30.31 in1026.4 mb - 0.00 in0.0 mm 0.00 in0.0 mm
10:20 AM 26.7°F-2.9°C 23.4°F-4.8°C 87% 4.6 mph NNW7.4 kmh NNW 6.9 mph11.1 kmh 30.32 in1026.8 mb - 0.00 in0.0 mm 0.00 in0.0 mm
10:30 AM 26.7°F-2.9°C 23.6°F-4.7°C 88% 3.5 mph N5.6 kmh N 5.8 mph9.3 kmh 30.33 in1027.1 mb - 0.00 in0.0 mm 0.00 in0.0 mm
10:40 AM 26.6°F-3.0°C 23.5°F-4.7°C 88% 4.6 mph N7.4 kmh N 6.9 mph11.1 kmh 30.33 in1027.1 mb - 0.00 in0.0 mm 0.00 in0.0 mm
10:50 AM 26.5°F-3.1°C 23.4°F-4.8°C 88% 3.5 mph NNW5.6 kmh NNW 4.6 mph7.4 kmh 30.34 in1027.4 mb - 0.00 in0.0 mm 0.00 in0.0 mm
11:00 AM 26.4°F-3.1°C 23.3°F-4.8°C 88% 4.6 mph N7.4 kmh N 6.9 mph11.1 kmh 30.34 in1027.4 mb - 0.00 in0.0 mm 0.00 in0.0 mm
11:10 AM 26.4°F-3.1°C 23.1°F-4.9°C 87% 4.6 mph N7.4 kmh N 10.4 mph16.7 kmh 30.35 in1027.8 mb - 0.00 in0.0 mm 0.00 in0.0 mm
11:20 AM 26.3°F-3.2°C 23.2°F-4.9°C 88% 4.6 mph N7.4 kmh N 8.1 mph13.0 kmh 30.36 in1028.1 mb - 0.00 in0.0 mm 0.00 in0.0 mm
11:30 AM 26.3°F-3.2°C 23.0°F-5.0°C 87% 6.9 mph N11.1 kmh N 10.4 mph16.7 kmh 30.36 in1028.1 mb - 0.00 in0.0 mm 0.00 in0.0 mm
11:40 AM 26.2°F-3.2°C 22.3°F-5.4°C 85% 5.8 mph N9.3 kmh N 8.1 mph13.0 kmh 30.36 in1028.1 mb - 0.00 in0.0 mm 0.00 in0.0 mm
11:50 AM 26.2°F-3.2°C 22.3°F-5.4°C 85% 6.9 mph N11.1 kmh N 6.9 mph11.1 kmh 30.37 in1028.4 mb - 0.00 in0.0 mm 0.00 in0.0 mm
12:00 PM 25.8°F-3.4°C 21.4°F-5.9°C 83% 6.9 mph N11.1 kmh N 10.4 mph16.7 kmh 30.38 in1028.8 mb - 0.00 in0.0 mm 0.00 in0.0 mm
12:10 PM 25.6°F-3.6°C 21.2°F-6.0°C 83% 6.9 mph N11.1 kmh N 9.2 mph14.8 kmh 30.38 in1028.8 mb - 0.00 in0.0 mm 0.00 in0.0 mm
12:20 PM 25.4°F-3.7°C 21.2°F-6.0°C 84% 6.9 mph NNW11.1 kmh NNW 11.5 mph18.5 kmh 30.38 in1028.8 mb - 0.00 in0.0 mm 0.00 in0.0 mm
12:30 PM 25.2°F-3.8°C 20.8°F-6.2°C 83% 8.1 mph N13.0 kmh N 9.2 mph14.8 kmh 30.39 in1029.1 mb - 0.00 in0.0 mm 0.00 in0.0 mm
12:40 PM 24.7°F-4.1°C 20.9°F-6.2°C 85% 6.9 mph N11.1 kmh N 9.2 mph14.8 kmh 30.40 in1029.5 mb - 0.00 in0.0 mm 0.00 in0.0 mm
12:50 PM 24.3°F-4.3°C 21.0°F-6.1°C 87% 5.8 mph N9.3 kmh N 10.4 mph16.7 kmh 30.40 in1029.5 mb - 0.00 in0.0 mm 0.00 in0.0 mm
01:00 PM 24.1°F-4.4°C 20.5°F-6.4°C 86% 8.1 mph N13.0 kmh N 9.2 mph14.8 kmh 30.40 in1029.5 mb - 0.00 in0.0 mm 0.00 in0.0 mm
01:10 PM 24.4°F-4.2°C 20.5°F-6.4°C 85% 5.8 mph N9.3 kmh N 8.1 mph13.0 kmh 30.41 in1029.8 mb - 0.00 in0.0 mm 0.00 in0.0 mm
01:20 PM 24.2°F-4.3°C 20.6°F-6.3°C 86% 6.9 mph NNW11.1 kmh NNW 11.5 mph18.5 kmh 30.41 in1029.8 mb - 0.00 in0.0 mm 0.00 in0.0 mm
01:30 PM 23.6°F-4.7°C 20.6°F-6.3°C 88% 6.9 mph N11.1 kmh N 11.5 mph18.5 kmh 30.42 in1030.1 mb - 0.00 in0.0 mm 0.00 in0.0 mm
01:40 PM 23.1°F-4.9°C 19.5°F-6.9°C 86% 8.1 mph N13.0 kmh N 10.4 mph16.7 kmh 30.42 in1030.1 mb - 0.00 in0.0 mm 0.00 in0.0 mm
01:50 PM 23.1°F-4.9°C 18.1°F-7.7°C 81% 6.9 mph N11.1 kmh N 11.5 mph18.5 kmh 30.43 in1030.5 mb - 0.00 in0.0 mm 0.00 in0.0 mm
02:00 PM 23.3°F-4.8°C 18.0°F-7.8°C 80% 5.8 mph N9.3 kmh N 11.5 mph18.5 kmh 30.43 in1030.5 mb - 0.00 in0.0 mm 0.00 in0.0 mm
02:10 PM 23.3°F-4.8°C 18.1°F-7.7°C 80% 6.9 mph N11.1 kmh N 15.0 mph24.1 kmh 30.43 in1030.5 mb - 0.00 in0.0 mm 0.00 in0.0 mm
02:20 PM 23.4°F-4.8°C 17.5°F-8.1°C 78% 4.6 mph N7.4 kmh N 5.8 mph9.3 kmh 30.44 in1030.8 mb - 0.00 in0.0 mm 0.00 in0.0 mm
02:30 PM 23.6°F-4.7°C 18.0°F-7.8°C 79% 6.9 mph N11.1 kmh N 9.2 mph14.8 kmh 30.45 in1031.2 mb - 0.00 in0.0 mm 0.00 in0.0 mm
02:40 PM 23.2°F-4.9°C 17.3°F-8.2°C 78% 6.9 mph N11.1 kmh N 11.5 mph18.5 kmh 30.46 in1031.5 mb - 0.00 in0.0 mm 0.00 in0.0 mm
02:50 PM 22.9°F-5.1°C 17.4°F-8.1°C 79% 6.9 mph N11.1 kmh N 10.4 mph16.7 kmh 30.47 in1031.8 mb - 0.00 in0.0 mm 0.00 in0.0 mm
03:00 PM 22.5°F-5.3°C 16.4°F-8.7°C 77% 5.8 mph N9.3 kmh N 11.5 mph18.5 kmh 30.47 in1031.8 mb - 0.00 in0.0 mm 0.00 in0.0 mm
03:10 PM 22.0°F-5.6°C 16.2°F-8.8°C 78% 4.6 mph NNW7.4 kmh NNW 9.2 mph14.8 kmh 30.48 in1032.2 mb - 0.00 in0.0 mm 0.00 in0.0 mm
03:20 PM 21.9°F-5.6°C 15.8°F-9.0°C 77% 8.1 mph N13.0 kmh N 11.5 mph18.5 kmh 30.48 in1032.2 mb - 0.00 in0.0 mm 0.00 in0.0 mm
03:30 PM 22.0°F-5.6°C 16.1°F-8.8°C 78% 4.6 mph NNW7.4 kmh NNW 6.9 mph11.1 kmh 30.49 in1032.5 mb - 0.00 in0.0 mm 0.00 in0.0 mm
03:40 PM 22.4°F-5.3°C 16.6°F-8.6°C 78% 8.1 mph N13.0 kmh N 11.5 mph18.5 kmh 30.49 in1032.5 mb - 0.00 in0.0 mm 0.00 in0.0 mm
03:50 PM 22.3°F-5.4°C 16.2°F-8.8°C 77% 6.9 mph 11.1 kmh 11.5 mph18.5 kmh 30.50 in1032.8 mb - 0.00 in0.0 mm 0.00 in0.0 mm
04:00 PM 21.7°F-5.7°C 14.4°F-9.8°C 73% 6.9 mph N11.1 kmh N 10.4 mph16.7 kmh 30.52 in1033.5 mb - 0.00 in0.0 mm 0.00 in0.0 mm
04:10 PM 21.4°F-5.9°C 14.1°F-9.9°C 73% 5.8 mph N9.3 kmh N 8.1 mph13.0 kmh 30.52 in1033.5 mb - 0.00 in0.0 mm 0.00 in0.0 mm
04:20 PM 21.3°F-5.9°C 14.9°F-9.5°C 76% 8.1 mph N13.0 kmh N 12.7 mph20.4 kmh 30.53 in1033.9 mb - 0.00 in0.0 mm 0.00 in0.0 mm
04:30 PM 20.9°F-6.2°C 14.8°F-9.6°C 77% 6.9 mph N11.1 kmh N 16.1 mph25.9 kmh 30.54 in1034.2 mb - 0.00 in0.0 mm 0.00 in0.0 mm
04:40 PM 20.7°F-6.3°C 14.3°F-9.8°C 76% 9.2 mph NNW14.8 kmh NNW 13.8 mph22.2 kmh 30.54 in1034.2 mb - 0.00 in0.0 mm 0.00 in0.0 mm
04:50 PM 20.6°F-6.3°C 14.2°F-9.9°C 76% 6.9 mph N11.1 kmh N 9.2 mph14.8 kmh 30.55 in1034.5 mb - 0.00 in0.0 mm 0.00 in0.0 mm
05:00 PM 20.3°F-6.5°C 13.9°F-10.1°C 76% 8.1 mph N13.0 kmh N 11.5 mph18.5 kmh 30.56 in1034.9 mb - 0.00 in0.0 mm 0.00 in0.0 mm
05:10 PM 20.1°F-6.6°C 13.7°F-10.2°C 76% 8.1 mph N13.0 kmh N 11.5 mph18.5 kmh 30.57 in1035.2 mb - 0.00 in0.0 mm 0.00 in0.0 mm
05:20 PM 19.9°F-6.7°C 13.3°F-10.4°C 75% 5.8 mph N9.3 kmh N 10.4 mph16.7 kmh 30.57 in1035.2 mb - 0.00 in0.0 mm 0.00 in0.0 mm
05:30 PM 19.8°F-6.8°C 13.8°F-10.1°C 77% 5.8 mph N9.3 kmh N 8.1 mph13.0 kmh 30.58 in1035.6 mb - 0.00 in0.0 mm 0.00 in0.0 mm
05:40 PM 19.8°F-6.8°C 14.0°F-10.0°C 78% 4.6 mph NNW7.4 kmh NNW 6.9 mph11.1 kmh 30.58 in1035.6 mb - 0.00 in0.0 mm 0.00 in0.0 mm
05:50 PM 19.8°F-6.8°C 14.0°F-10.0°C 78% 3.5 mph NNW5.6 kmh NNW 4.6 mph7.4 kmh 30.59 in1035.9 mb - 0.00 in0.0 mm 0.00 in0.0 mm
06:00 PM 19.7°F-6.8°C 14.2°F-9.9°C 79% 3.5 mph N5.6 kmh N 6.9 mph11.1 kmh 30.59 in1035.9 mb - 0.00 in0.0 mm 0.00 in0.0 mm
06:10 PM 19.7°F-6.8°C 14.3°F-9.8°C 79% 3.5 mph N5.6 kmh N 4.6 mph7.4 kmh 30.59 in1035.9 mb - 0.00 in0.0 mm 0.00 in0.0 mm
06:20 PM 19.8°F-6.8°C 14.3°F-9.8°C 79% 2.3 mph N3.7 kmh N 4.6 mph7.4 kmh 30.60 in1036.2 mb - 0.00 in0.0 mm 0.00 in0.0 mm
06:30 PM 19.8°F-6.8°C 14.6°F-9.7°C 80% 2.3 mph NNW3.7 kmh NNW 4.6 mph7.4 kmh 30.62 in1036.9 mb - 0.00 in0.0 mm 0.00 in0.0 mm
06:40 PM 20.0°F-6.7°C 15.4°F-9.2°C 82% 2.3 mph NNW3.7 kmh NNW 3.5 mph5.6 kmh 30.62 in1036.9 mb - 0.00 in0.0 mm 0.00 in0.0 mm
06:50 PM 20.1°F-6.6°C 15.2°F-9.3°C 81% 1.1 mph N1.8 kmh N 2.3 mph3.7 kmh 30.62 in1036.9 mb - 0.00 in0.0 mm 0.00 in0.0 mm
07:00 PM 20.0°F-6.7°C 15.1°F-9.4°C 81% 3.5 mph NNW5.6 kmh NNW 5.8 mph9.3 kmh 30.62 in1036.9 mb - 0.00 in0.0 mm 0.00 in0.0 mm
07:10 PM 19.9°F-6.7°C 14.7°F-9.6°C 80% 1.1 mph NNW1.8 kmh NNW 3.5 mph5.6 kmh 30.62 in1036.9 mb - 0.00 in0.0 mm 0.00 in0.0 mm
07:20 PM 19.9°F-6.7°C 15.0°F-9.4°C 81% 3.5 mph N5.6 kmh N 5.8 mph9.3 kmh 30.63 in1037.3 mb - 0.00 in0.0 mm 0.00 in0.0 mm
07:30 PM 20.2°F-6.6°C 14.4°F-9.8°C 78% 4.6 mph NNW7.4 kmh NNW 8.1 mph13.0 kmh 30.63 in1037.3 mb - 0.00 in0.0 mm 0.00 in0.0 mm
07:40 PM 20.2°F-6.6°C 15.3°F-9.3°C 81% 3.5 mph NNW5.6 kmh NNW 4.6 mph7.4 kmh 30.63 in1037.3 mb - 0.00 in0.0 mm 0.00 in0.0 mm
07:50 PM 20.4°F-6.4°C 14.9°F-9.5°C 79% 3.5 mph N5.6 kmh N 3.5 mph5.6 kmh 30.64 in1037.6 mb - 0.00 in0.0 mm 0.00 in0.0 mm
08:00 PM 20.4°F-6.4°C 15.2°F-9.3°C 80% 3.5 mph N5.6 kmh N 6.9 mph11.1 kmh 30.65 in1037.9 mb - 0.00 in0.0 mm 0.00 in0.0 mm
08:10 PM 20.4°F-6.4°C 14.9°F-9.5°C 79% 4.6 mph NNW7.4 kmh NNW 5.8 mph9.3 kmh 30.66 in1038.3 mb - 0.00 in0.0 mm 0.00 in0.0 mm
08:20 PM 20.4°F-6.4°C 14.9°F-9.5°C 79% 3.5 mph NW5.6 kmh NW 6.9 mph11.1 kmh 30.66 in1038.3 mb - 0.00 in0.0 mm 0.00 in0.0 mm
08:30 PM 20.4°F-6.4°C 15.5°F-9.2°C 81% 4.6 mph N7.4 kmh N 6.9 mph11.1 kmh 30.66 in1038.3 mb - 0.00 in0.0 mm 0.00 in0.0 mm
08:40 PM 20.5°F-6.4°C 15.3°F-9.3°C 80% 3.5 mph N5.6 kmh N 4.6 mph7.4 kmh 30.67 in1038.6 mb - 0.00 in0.0 mm 0.00 in0.0 mm
08:50 PM 20.5°F-6.4°C 15.3°F-9.3°C 80% 3.5 mph N5.6 kmh N 4.6 mph7.4 kmh 30.67 in1038.6 mb - 0.00 in0.0 mm 0.00 in0.0 mm
09:00 PM 20.6°F-6.3°C 15.7°F-9.1°C 81% 2.3 mph NW3.7 kmh NW 3.5 mph5.6 kmh 30.67 in1038.6 mb - 0.00 in0.0 mm 0.00 in0.0 mm
09:10 PM 20.6°F-6.3°C 16.0°F-8.9°C 82% 2.3 mph NW3.7 kmh NW 3.5 mph5.6 kmh 30.67 in1038.6 mb - 0.00 in0.0 mm 0.00 in0.0 mm
09:20 PM 20.6°F-6.3°C 15.7°F-9.1°C 81% 3.5 mph N5.6 kmh N 5.8 mph9.3 kmh 30.67 in1038.6 mb - 0.00 in0.0 mm 0.00 in0.0 mm
09:30 PM 20.6°F-6.3°C 15.7°F-9.1°C 81% 3.5 mph NNW5.6 kmh NNW 4.6 mph7.4 kmh 30.68 in1038.9 mb - 0.00 in0.0 mm 0.00 in0.0 mm
09:40 PM 20.7°F-6.3°C 16.1°F-8.8°C 82% 3.5 mph N5.6 kmh N 5.8 mph9.3 kmh 30.68 in1038.9 mb - 0.00 in0.0 mm 0.00 in0.0 mm
09:50 PM 20.8°F-6.2°C 15.9°F-8.9°C 81% 2.3 mph NNW3.7 kmh NNW 3.5 mph5.6 kmh 30.68 in1038.9 mb - 0.00 in0.0 mm 0.00 in0.0 mm
10:00 PM 20.9°F-6.2°C 16.3°F-8.7°C 82% 2.3 mph N3.7 kmh N 4.6 mph7.4 kmh 30.68 in1038.9 mb - 0.00 in0.0 mm 0.00 in0.0 mm
10:10 PM 21.0°F-6.1°C 16.4°F-8.7°C 82% 4.6 mph 7.4 kmh 5.8 mph9.3 kmh 30.68 in1038.9 mb - 0.00 in0.0 mm 0.00 in0.0 mm
10:20 PM 20.9°F-6.2°C 16.3°F-8.7°C 82% 3.5 mph N5.6 kmh N 4.6 mph7.4 kmh 30.69 in1039.3 mb - 0.00 in0.0 mm 0.00 in0.0 mm
10:30 PM 21.0°F-6.1°C 16.0°F-8.9°C 81% 2.3 mph NNW3.7 kmh NNW 3.5 mph5.6 kmh 30.69 in1039.3 mb - 0.00 in0.0 mm 0.00 in0.0 mm
10:40 PM 20.9°F-6.2°C 16.0°F-8.9°C 81% 2.3 mph NW3.7 kmh NW 4.6 mph7.4 kmh 30.70 in1039.6 mb - 0.00 in0.0 mm 0.00 in0.0 mm
10:50 PM 21.1°F-6.1°C 16.1°F-8.8°C 81% 2.3 mph N3.7 kmh N 4.6 mph7.4 kmh 30.70 in1039.6 mb - 0.00 in0.0 mm 0.00 in0.0 mm
11:00 PM 21.1°F-6.1°C 15.9°F-8.9°C 80% 2.3 mph NW3.7 kmh NW 2.3 mph3.7 kmh 30.70 in1039.6 mb - 0.00 in0.0 mm 0.00 in0.0 mm
11:10 PM 21.1°F-6.1°C 16.2°F-8.8°C 81% 2.3 mph NW3.7 kmh NW 2.3 mph3.7 kmh 30.70 in1039.6 mb - 0.00 in0.0 mm 0.00 in0.0 mm
11:20 PM 21.2°F-6.0°C 16.3°F-8.7°C 81% 2.3 mph NNW3.7 kmh NNW 3.5 mph5.6 kmh 30.71 in1040.0 mb - 0.00 in0.0 mm 0.00 in0.0 mm
11:30 PM 21.3°F-5.9°C 16.4°F-8.7°C 81% 1.1 mph NW1.8 kmh NW 2.3 mph3.7 kmh 30.72 in1040.3 mb - 0.00 in0.0 mm 0.00 in0.0 mm
11:40 PM 21.3°F-5.9°C 16.1°F-8.8°C 80% 2.3 mph NNW3.7 kmh NNW 3.5 mph5.6 kmh 30.72 in1040.3 mb - 0.00 in0.0 mm 0.00 in0.0 mm
11:50 PM 21.2°F-6.0°C 15.7°F-9.1°C 79% 1.1 mph N1.8 kmh N 3.5 mph5.6 kmh 30.73 in1040.6 mb - 0.00 in0.0 mm 0.00 in0.0 mm